OOLO2: Oologah Lake

Data processed at Fri Mar 09 2018 23:11


All information presented herein is the property of the government of the United States of America and may be revised or deleted at any time without prior notice.
Dissemination of this information without the expressed written consent of the Public Affairs Office, Tulsa District U.S. Army Corps of Engineers is strictly prohibited.
These data are gathered electronically and, as presented, have not undergone any form of quality control. These data are not guaranteed to be valid or correct.
Go to home page.
Go to station list.

Upstream stations:

Downstream station:
Previous Day
Next Day
Current Day
    
SHEF ID:       OOLO2     Oologah Lake
STATION TYPE:  RESERVOIR
Normal Pool:  Bottom =   592.00, Top =   638.00

               PRECIP  RIV-FLOW ELEVATION   STORAGE   TW-ELEV    INFLOW   RELEASE  AIR-TEMP  WIND-DIRWIND-SPEED REL-HUMID SOLAR-RAD   VOLTAGE  BAT-LOAD
                   in       cfs        ft     ac-ft        ft       cfs       cfs         F       deg       mph         %      W/m2      volt      volt
              Ccp-Rev   Ccp-Rev   Ccp-Rev   Ccp-Rev   Ccp-Rev  Regi-Rev  Regi-Rev   Ccp-Rev   Ccp-Rev   Ccp-Rev   Ccp-Rev   Ccp-Rev   Ccp-Rev   Ccp-Rev
(US/Central)
03/07 00:00      0.00      5191    638.89    483343     16.22         1      4474     34.38    287.50      5.70     55.44      0.00     13.73     12.49
03/07 01:00      0.00      5200    638.90    483637     16.23         0         0     32.95    275.20      5.70     58.83      0.00     13.72     12.49
03/07 02:00      0.00      5200    638.87    482755     16.23         0      4473     32.45    264.90      6.60     62.27      0.00     13.72     12.57
03/07 03:00      0.00      5191    638.85    482166     16.22         1      4473     30.92    276.50      5.90     65.36      0.00     13.72     12.57
03/07 04:00      0.00      5200    638.88    483049     16.23         9      4473     31.12    312.80      6.80     67.33      0.00     13.72     12.49
03/07 05:00      0.00      5200    638.87    482755     16.23        28      4473     30.58    296.70      3.30     69.24      0.00     13.72     12.49
03/07 06:00      0.00      5191    638.77    479813     16.22        46      4471     30.34    271.40      4.30     68.82      0.00     13.72     12.49
03/07 07:00      0.00      5191    638.81    480989     16.22        64      4470     29.55    259.80      5.90     70.71      0.00     13.72     12.49
03/07 08:00      0.00      5191    638.82    481284     16.22        64      4471     29.21    255.40      6.20     72.14     88.20     13.72     12.49
03/07 09:00      0.00      5191    638.75    479224     16.22        55         0     31.91    284.70      7.40     65.36    313.40     13.72     12.49
03/07 10:00      0.00      5191    638.79    480401     16.22        37      4470     34.11    292.10      9.60     58.65    486.30     13.72     12.49
03/07 11:00      0.00      5200    638.79    480401     16.23        27      4470     36.23    292.20      9.50     53.49    666.30     13.72     12.49
03/07 12:00      0.00      5191    638.71    478047     16.22        17      4469     38.88    267.70      9.10     48.40    787.40     13.72     12.49
03/07 13:00      0.00      5191    638.72    478342     16.22        26         0     42.17    273.20      9.60     42.52    827.20     13.72     10.98
03/07 14:00      0.00      5200    638.73    478636     16.23        26      4468     45.57    273.30      9.10     37.66    712.80     13.72     12.49
03/07 15:00      0.00      5191    638.73    478636     16.22        26      4469     48.81    276.60     10.30     29.28    687.50     13.72     12.49
03/07 16:00      0.00      5182    638.68    477165     16.21        17      4468     50.27    292.20     11.20     23.21    426.00     13.72     12.49
03/07 17:00      0.00      5182    638.71    478047     16.21         9         0     50.97    286.20      9.30     21.29    293.50     13.72     12.57
03/07 18:00      0.00      5182    638.67    476871     16.21         0      4467     51.26    296.10      8.30     20.55    125.20     13.72     12.57
03/07 19:00      0.00      5182    638.64    475988     16.21         0      4461     49.19    300.30      5.10     23.32      1.70     13.72     12.57
03/07 20:00      0.00      5182    638.62    475400     16.21         0      4461     47.03    307.80      3.80     25.72      0.00     13.72     12.57
03/07 21:00      0.00      5182    638.62    475400     16.21         0      4465     46.18    298.80      3.50     26.60      0.00     13.72     12.57
03/07 22:00      0.00      5182    638.61    475106     16.21         0      4465     44.02    199.20      0.70     30.37      0.00     13.72     12.57
03/07 23:00      0.00      5182    638.58    474223     16.21         0      4464     42.13    188.20      1.00     33.90      0.00     13.72     12.49